Data for 06/04/2005

Time Sea-Level Adjusted Pressure Absolute Pressure Temperature Relative Humidity Dew Point   
(mb) (inHg) (mb) (inHg) (C) (F) (%) (C) (F)
00:05 1015 29.97 844 24.92 9.7 49.5 78 6 42.9
00:10 1015 29.97 844 24.92 9.7 49.5 79 6.2 43.2
00:15 1015 29.97 844 24.92 9.8 49.6 77 5.9 42.6
00:20 1015 29.97 844 24.92 9.8 49.6 76 5.8 42.5
00:25 1015 29.97 844 24.92 9.9 49.7 76 5.9 42.7
00:30 1015 29.97 844 24.92 9.8 49.6 78 6.1 42.9
00:35 1015 29.97 844 24.92 9.8 49.6 77 6 42.8
00:40 1015 29.97 844 24.92 9.8 49.6 77 6 42.9
00:45 1015 29.97 844 24.92 9.8 49.6 78 6.1 42.9
00:50 1015 29.97 844 24.92 9.7 49.4 78 6 42.8
00:55 1015 29.97 844 24.92 9.6 49.4 77 5.9 42.6
01:00 1015 29.97 844 24.92 9.6 49.3 77 5.9 42.6
01:05 1015 29.97 844 24.92 9.6 49.2 78 6 42.7
01:10 1015 29.97 844 24.92 9.6 49.2 80 6.3 43.3
01:15 1015 29.97 844 24.92 9.4 49 80 6.2 43.2
01:20 1015 29.97 844 24.92 9.4 48.9 80 6 42.9
01:25 1015 29.97 844 24.92 9.5 49.2 80 6.2 43.2
01:30 1014 29.94 844 24.92 9.6 49.2 79 6.1 43
01:35 1014 29.94 844 24.92 9.5 49.1 80 6.2 43.1
01:40 1015 29.97 844 24.92 9.5 49 80 6.2 43.2
01:45 1015 29.97 844 24.92 9.5 49 80 6.2 43.2
01:50 1015 29.97 844 24.92 9.2 48.5 82 6.4 43.4
01:55 1015 29.97 844 24.92 9 48.1 84 6.4 43.6
02:00 1015 29.97 844 24.92 8.9 48 84 6.3 43.3
02:05 1015 29.97 844 24.92 8.9 48 84 6.3 43.3
02:10 1014 29.94 844 24.92 8.9 48.1 85 6.5 43.7
02:15 1014 29.94 844 24.92 8.9 48.1 84 6.3 43.4
02:20 1015 29.97 844 24.92 9 48.2 81 5.9 42.6
02:25 1015 29.97 844 24.92 9.3 48.7 78 5.7 42.2
02:30 1015 29.97 844 24.92 9.5 49.1 77 5.7 42.3
02:35 1015 29.97 844 24.92 9.6 49.3 77 5.8 42.4
02:40 1015 29.97 844 24.92 9.6 49.3 77 5.8 42.4
02:45 1015 29.97 844 24.92 9.6 49.3 76 5.7 42.2
02:50 1015 29.97 844 24.92 9.6 49.3 76 5.7 42.2
02:55 1015 29.97 844 24.92 9.5 49 78 5.8 42.5
03:00 1015 29.97 844 24.92 9.4 49 77 5.6 42.2
03:05 1015 29.97 844 24.92 9.5 49.1 78 5.8 42.4
03:10 1015 29.97 844 24.92 9.4 49 77 5.7 42.2
03:15 1015 29.97 844 24.92 9.5 49.1 76 5.5 41.9
03:20 1015 29.97 844 24.92 9.6 49.2 74 5.2 41.4
03:25 1015 29.97 844 24.92 9.7 49.4 75 5.4 41.8
03:30 1015 29.97 844 24.92 9.8 49.6 73 5.2 41.3
03:35 1015 29.97 844 24.92 9.8 49.6 73 5.2 41.3
03:40 1015 29.97 844 24.92 9.7 49.5 74 5.4 41.7
03:45 1015 29.97 844 24.92 9.7 49.4 75 5.4 41.7
03:50 1015 29.97 844 24.92 9.7 49.4 73 5.1 41.2
03:55 1015 29.97 844 24.92 9.7 49.4 73 5.1 41.1
04:00 1015 29.97 844 24.92 9.7 49.5 72 5 40.9
04:05 1015 29.97 844 24.92 9.7 49.4 72 5 40.9
04:10 1015 29.97 844 24.92 9.6 49.3 74 5.2 41.3
04:15 1015 29.97 844 24.92 9.6 49.3 73 5 41
04:20 1015 29.97 844 24.92 9.5 49.1 75 5.3 41.6
04:25 1015 29.97 844 24.92 9.1 48.4 83 6.4 43.5
04:30 1015 29.97 844 24.92 8.7 47.7 84 6.2 43.2
04:35 1015 29.97 844 24.92 8.6 47.6 84 6.2 43.1
04:40 1015 29.97 844 24.92 8.6 47.5 85 6.2 43.2
04:45 1015 29.97 844 24.92 8.6 47.4 83 5.8 42.5
04:50 1015 29.97 844 24.92 8.7 47.7 84 6.2 43.2
04:55 1015 29.97 844 24.92 8.6 47.5 85 6.2 43.2
05:00 1015 29.97 844 24.92 8.6 47.4 86 6.3 43.4
05:05 1015 29.97 844 24.92 8.5 47.3 83 5.9 42.6
05:10 1015 29.97 844 24.92 8.6 47.5 85 6.2 43.2
05:15 1015 29.97 844 24.92 8.4 47.2 85 6 42.8
05:20 1015 29.97 844 24.92 8.3 47 85 5.9 42.6
05:25 1015 29.97 844 24.92 8.2 46.7 86 5.9 42.6
05:30 1015 29.97 844 24.92 8 46.4 85 5.6 42.1
05:35 1015 29.97 844 24.92 8 46.4 86 5.7 42.3
05:40 1015 29.97 844 24.92 7.8 46 86 5.5 42
05:45 1015 29.97 844 24.92 7.8 46.1 86 5.6 42.2
05:50 1015 29.97 844 24.92 7.7 45.9 85 5.4 41.7
05:55 1015 29.97 844 24.92 7.8 46.1 85 5.4 41.8
06:00 1015 29.97 844 24.92 8.1 46.5 84 5.5 42
06:05 1015 29.97 844 24.92 7.9 46.3 85 5.5 42
06:10 1015 29.97 844 24.92 7.7 45.8 88 5.8 42.4
06:15 1015 29.97 844 24.92 7.4 45.2 88 5.6 42
06:20 1015 29.97 844 24.92 7.7 45.9 85 5.3 41.6
06:25 1015 29.97 844 24.92 8.3 47 83 5.6 42.1
06:30 1015 29.97 844 24.92 8.9 47.9 79 5.5 41.8
06:35 1015 29.97 844 24.92 9.2 48.6 79 5.8 42.5
06:40 1015 29.97 844 24.92 8.9 48 81 5.8 42.5
06:45 1015 29.97 844 24.92 9.1 48.4 81 6 42.8
06:50 1015 29.97 844 24.92 9.5 49 77 5.7 42.3
06:55 1015 29.97 844 24.92 10.1 50.3 73 5.5 41.9
07:00 1015 29.97 844 24.92 10.8 51.4 71 5.8 42.5
07:05 1015 29.97 844 24.92 10.9 51.5 70 5.7 42.3
07:10 1015 29.97 844 24.92 10.5 50.8 73 5.8 42.5
07:15 1015 29.97 844 24.92 10.4 50.7 73 5.8 42.5
07:20 1015 29.97 844 24.92 10.3 50.5 75 6.1 43
07:25 1015 29.97 844 24.92 10.3 50.5 76 6.3 43.4
07:30 1015 29.97 844 24.92 10.3 50.5 75 6 42.9
07:35 1015 29.97 844 24.92 10.3 50.5 75 6 42.9
07:40 1015 29.97 844 24.92 10.3 50.5 75 6.1 43
07:45 1015 29.97 844 24.92 10.3 50.6 75 6.1 43
07:50 1015 29.97 844 24.92 10.3 50.5 75 6.1 43
07:55 1015 29.97 844 24.92 10.4 50.7 75 6.1 43
08:00 1015 29.97 844 24.92 10.5 50.9 75 6.2 43.2
08:05 1015 29.97 844 24.92 10.7 51.2 73 6.1 43
08:10 1015 29.97 844 24.92 10.7 51.3 70 5.4 41.8
08:15 1015 29.97 844 24.92 10.7 51.2 70 5.5 42
08:20 1015 29.97 844 24.92 10.9 51.6 69 5.4 41.8
08:25 1015 29.97 844 24.92 11.1 52 68 5.5 41.8
08:30 1015 29.97 844 24.92 11.3 52.3 67 5.4 41.8
08:35 1015 29.97 844 24.92 11.7 53.1 63 4.9 40.8
08:40 1015 29.97 844 24.92 11.5 52.7 64 5.1 41.1
08:45 1015 29.97 844 24.92 11.5 52.6 64 4.9 40.8
08:50 1015 29.97 844 24.92 11.2 52.1 63 4.5 40.2
08:55 1015 29.97 844 24.92 11.5 52.8 63 4.8 40.6
09:00 1015 29.97 845 24.95 11.9 53.3 62 4.9 40.7
09:05 1015 29.97 845 24.95 12.7 54.8 59 5 40.9
09:10 1015 29.97 845 24.95 13 55.4 58 5 41
09:15 1015 29.97 845 24.95 13.7 56.6 56 5.1 41.2
09:20 1015 29.97 845 24.95 13.8 56.8 57 5.4 41.7
09:25 1015 29.97 845 24.95 14 57.2 55 5.2 41.3
09:30 1015 29.97 845 24.95 14.2 57.6 56 5.6 42.1
09:35 1015 29.97 845 24.95 14.5 58 54 5.4 41.7
09:40 1015 29.97 845 24.95 14.2 57.5 55 5.4 41.8
09:45 1015 29.97 845 24.95 13.7 56.7 56 5.1 41.2
09:50 1015 29.97 844 24.92 13.6 56.5 53 4.4 39.9
09:55 1015 29.97 844 24.92 14.2 57.5 54 5.1 41.2
10:00 1015 29.97 844 24.92 14 57.1 54 4.9 40.9
10:05 1015 29.97 844 24.92 13.9 57.1 52 4.2 39.6
10:10 1015 29.97 844 24.92 14.3 57.8 51 4.4 39.9
10:15 1015 29.97 844 24.92 14.5 58.1 51 4.5 40
10:20 1015 29.97 844 24.92 14.8 58.6 48 3.8 38.9
10:25 1015 29.97 844 24.92 15.1 59.2 47 3.9 39.1
10:30 1015 29.97 844 24.92 15.3 59.6 46 3.8 38.8
10:35 1015 29.97 844 24.92 15.6 60.1 48 4.6 40.3
10:40 1015 29.97 844 24.92 14.4 57.9 52 4.7 40.4
10:45 1015 29.97 844 24.92 13.7 56.6 53 4.4 40
10:50 1015 29.97 844 24.92 14.4 58 51 4.4 39.9
10:55 1015 29.97 844 24.92 14 57.2 52 4.4 39.9
11:00 1015 29.97 844 24.92 14.4 57.9 48 3.7 38.7
11:05 1015 29.97 844 24.92 14.9 58.8 49 4.5 40.1
11:10 1015 29.97 844 24.92 14.6 58.3 50 4.4 39.9
11:15 1015 29.97 844 24.92 15.2 59.3 48 4.3 39.8
11:20 1015 29.97 844 24.92 15.4 59.8 49 4.8 40.7
11:25 1015 29.97 844 24.92 15 59.1 48 4.3 39.7
11:30 1015 29.97 844 24.92 15.8 60.4 46 4.4 39.9
11:35 1015 29.97 844 24.92 15.8 60.5 45 4.1 39.4
11:40 1015 29.97 844 24.92 16.2 61.2 45 4.4 39.8
11:45 1015 29.97 844 24.92 16.8 62.3 42 4 39.1
11:50 1015 29.97 844 24.92 16.3 61.3 46 4.8 40.7
11:55 1015 29.97 844 24.92 16 60.8 49 5.4 41.8
12:00 1015 29.97 844 24.92 16 60.8 45 4.3 39.7
12:05 1015 29.97 844 24.92 16.1 61 46 4.6 40.3
12:10 1015 29.97 844 24.92 16.5 61.8 47 5.2 41.3
12:15 1015 29.97 844 24.92 15.9 60.7 48 4.9 40.9
12:20 1015 29.97 844 24.92 15.5 59.9 47 4.4 39.8
12:25 1015 29.97 844 24.92 15.7 60.3 46 4.2 39.5
12:30 1015 29.97 844 24.92 16.4 61.5 44 4.3 39.8
12:35 1015 29.97 844 24.92 16.5 61.6 46 4.8 40.6
12:40 1015 29.97 844 24.92 16.6 62 43 4.2 39.6
12:45 1015 29.97 844 24.92 15.9 60.6 48 5 41
12:50 1015 29.97 844 24.92 16.2 61.2 47 5 41
12:55 1015 29.97 844 24.92 16.9 62.3 44 4.6 40.3
13:00 1015 29.97 844 24.92 16.4 61.5 45 4.5 40
13:05 1015 29.97 844 24.92 16.1 60.9 47 4.8 40.6
13:10 1015 29.97 844 24.92 16.2 61.1 43 3.8 38.8
13:15 1014 29.94 844 24.92 18 64.3 40 4.3 39.8
13:20 1014 29.94 844 24.92 18.6 65.5 39 4.7 40.4
13:25 1014 29.94 844 24.92 18.6 65.4 40 4.8 40.6
13:30 1014 29.94 844 24.92 18.7 65.7 40 4.9 40.9
13:35 1014 29.94 844 24.92 18.4 65.1 39 4.4 39.8
13:40 1014 29.94 844 24.92 17.8 64 41 4.5 40.1
13:45 1014 29.94 843 24.89 17.7 63.9 40 4.2 39.5
13:50 1014 29.94 843 24.89 18.1 64.6 40 4.5 40.1
13:55 1014 29.94 843 24.89 19 66.2 39 4.9 40.8
14:00 1014 29.94 843 24.89 18.6 65.5 39 4.6 40.3
14:05 1014 29.94 843 24.89 17.9 64.2 39 4 39.2
14:10 1014 29.94 843 24.89 18.3 64.9 40 4.4 40
14:15 1014 29.94 843 24.89 18.4 65.2 37 3.7 38.6
14:20 1014 29.94 843 24.89 19.1 66.4 35 3.6 38.4
14:25 1014 29.94 843 24.89 19.2 66.5 37 4.4 39.9
14:30 1014 29.94 843 24.89 19.1 66.3 36 3.7 38.6
14:35 1014 29.94 843 24.89 19.1 66.3 37 4.4 39.9
14:40 1014 29.94 843 24.89 19.3 66.8 38 4.6 40.4
14:45 1014 29.94 843 24.89 19.2 66.5 36 4 39.2
14:50 1014 29.94 843 24.89 19.2 66.5 35 3.6 38.5
14:55 1014 29.94 843 24.89 18.9 66 34 2.8 37.1
15:00 1014 29.94 843 24.89 19.5 67 34 3.4 38.2
15:05 1014 29.94 843 24.89 19.6 67.3 34 3.6 38.5
15:10 1014 29.94 843 24.89 19.3 66.8 34 3.1 37.5
15:15 1014 29.94 843 24.89 19.6 67.3 34 3.3 37.9
15:20 1014 29.94 843 24.89 19.7 67.5 34 3.8 38.8
15:25 1014 29.94 843 24.89 19.5 67.1 35 4 39.1
15:30 1014 29.94 843 24.89 19.5 67.2 32 2.7 36.9
15:35 1013 29.91 843 24.89 19.2 66.6 33 2.7 36.8
15:40 1013 29.91 843 24.89 19.1 66.3 36 3.7 38.7
15:45 1013 29.91 843 24.89 19.2 66.5 35 3.4 38.1
15:50 1013 29.91 842 24.86 18.3 65 37 3.6 38.5
15:55 1013 29.91 842 24.86 18.3 64.9 36 3.2 37.7
16:00 1013 29.91 842 24.86 19.2 66.5 34 2.9 37.3
16:05 1013 29.91 842 24.86 19.5 67.1 32 2.7 36.9
16:10 1013 29.91 842 24.86 20 67.9 31 2.6 36.6
16:15 1013 29.91 842 24.86 20.1 68.1 30 2 35.6
16:20 1013 29.91 842 24.86 20 68 32 2.9 37.2
16:25 1013 29.91 842 24.86 20.3 68.6 30 2.5 36.5
16:30 1013 29.91 842 24.86 20.1 68.2 31 2.5 36.5
16:35 1013 29.91 842 24.86 19.1 66.3 31 1.7 35.1
16:40 1013 29.91 842 24.86 20.3 68.5 30 2.5 36.5
16:45 1013 29.91 842 24.86 20.4 68.6 29 2.1 35.8
16:50 1013 29.91 842 24.86 20.6 69 30 2.5 36.4
16:55 1013 29.91 842 24.86 20.6 69.1 30 2.4 36.4
17:00 1013 29.91 842 24.86 20.3 68.6 29 1.8 35.2
17:05 1013 29.91 842 24.86 19.9 67.9 30 2.1 35.7
17:10 1013 29.91 842 24.86 20.4 68.7 30 2.3 36.1
17:15 1013 29.91 842 24.86 20.2 68.4 30 2.4 36.4
17:20 1013 29.91 842 24.86 20 68.1 30 1.9 35.5
17:25 1013 29.91 842 24.86 20.3 68.6 30 2.4 36.4
17:30 1013 29.91 842 24.86 20.3 68.5 31 2.6 36.7
17:35 1013 29.91 842 24.86 20.4 68.6 30 2.3 36.1
17:40 1013 29.91 842 24.86 20.6 69.1 30 2.8 37.1
17:45 1013 29.91 842 24.86 20.8 69.5 30 2.9 37.2
17:50 1013 29.91 842 24.86 20.6 69.2 30 2.6 36.7
17:55 1013 29.91 842 24.86 20.4 68.7 30 2.6 36.6
18:00 1012 29.88 842 24.86 20.7 69.3 30 2.6 36.7
18:05 1012 29.88 842 24.86 20.2 68.3 30 2.4 36.4
18:10 1012 29.88 842 24.86 19.9 67.7 30 2 35.6
18:15 1012 29.88 842 24.86 19.8 67.6 30 2 35.5
18:20 1012 29.88 842 24.86 19.6 67.3 30 1.9 35.5
18:25 1012 29.88 841 24.83 19.5 67 32 2.3 36.1
18:30 1012 29.88 841 24.83 19.5 67.2 31 2 35.7
18:35 1012 29.88 841 24.83 19.9 67.8 31 2.3 36.2
18:40 1012 29.88 841 24.83 19.6 67.3 31 2.3 36.1
18:45 1012 29.88 841 24.83 19.1 66.4 33 2.6 36.7
18:50 1012 29.88 841 24.83 19 66.2 32 2.3 36.1
18:55 1012 29.88 841 24.83 19.4 67 30 1.7 35.1
19:00 1012 29.88 841 24.83 19.5 67.2 31 2 35.7
19:05 1012 29.88 841 24.83 19.5 67.1 32 2.5 36.5
19:10 1012 29.88 841 24.83 18.8 65.9 34 2.6 36.7
19:15 1012 29.88 841 24.83 18.4 65.1 33 2.1 35.7
19:20 1012 29.88 841 24.83 18.3 65 34 2.4 36.3
19:25 1012 29.88 841 24.83 18.2 64.7 34 2 35.6
19:30 1012 29.88 841 24.83 18.3 65 34 2.2 36
19:35 1012 29.88 841 24.83 18.3 64.9 34 2.1 35.8
19:40 1012 29.88 841 24.83 18.5 65.3 33 2.1 35.8
19:45 1012 29.88 841 24.83 18.8 65.8 33 2.3 36.2
19:50 1012 29.88 841 24.83 18.3 64.9 34 2.2 35.9
19:55 1012 29.88 841 24.83 17.9 64.2 34 2 35.6
20:00 1012 29.88 841 24.83 17.7 63.8 34 1.7 35.1
20:05 1012 29.88 841 24.83 17.6 63.7 34 1.6 34.9
20:10 1012 29.88 841 24.83 17.5 63.5 34 1.6 35
20:15 1012 29.88 841 24.83 17.4 63.4 36 2.2 35.9
20:20 1012 29.88 841 24.83 17.4 63.4 35 2.1 35.7
20:25 1012 29.88 841 24.83 17.4 63.2 35 1.8 35.3
20:30 1012 29.88 841 24.83 17.3 63.2 35 1.9 35.4
20:35 1012 29.88 841 24.83 17.2 62.9 35 1.9 35.3
20:40 1012 29.88 841 24.83 17.1 62.8 36 2 35.5
20:45 1012 29.88 841 24.83 17 62.6 36 1.9 35.4
20:50 1012 29.88 841 24.83 16.9 62.3 37 2.3 36.2
20:55 1012 29.88 841 24.83 16.7 62 39 2.8 37
21:00 1012 29.88 841 24.83 16.6 62 39 2.9 37.2
21:05 1012 29.88 841 24.83 16.5 61.8 40 3 37.5
21:10 1012 29.88 841 24.83 16.2 61.2 42 3.3 37.9
21:15 1012 29.88 841 24.83 16 60.8 42 3.1 37.6
21:20 1012 29.88 841 24.83 15.8 60.4 51 5.8 42.5
21:25 1012 29.88 841 24.83 14.7 58.5 57 6.4 43.5
21:30 1012 29.88 841 24.83 14.1 57.4 62 6.9 44.4
21:35 1012 29.88 841 24.83 13.4 56 65 7.1 44.7
21:40 1012 29.88 841 24.83 12.8 55.1 64 6.2 43.1
21:45 1012 29.88 841 24.83 12.6 54.7 65 6.2 43.1
21:50 1012 29.88 841 24.83 12.2 53.9 66 6 42.8
21:55 1012 29.88 841 24.83 11.9 53.5 67 6 42.9
22:00 1012 29.88 841 24.83 11.7 53.1 68 6 42.9
22:05 1012 29.88 841 24.83 11.6 52.8 69 6.1 43
22:10 1012 29.88 841 24.83 11.6 52.8 69 6.1 42.9
22:15 1012 29.88 841 24.83 11.5 52.8 68 5.9 42.7
22:20 1012 29.88 842 24.86 11.8 53.3 65 5.4 41.8
22:25 1012 29.88 842 24.86 12.5 54.4 59 4.7 40.5
22:30 1012 29.88 842 24.86 12.6 54.8 61 5.4 41.7
22:35 1012 29.88 842 24.86 12.4 54.3 63 5.6 42.1
22:40 1012 29.88 842 24.86 12.2 53.9 63 5.4 41.7
22:45 1012 29.88 841 24.83 12.1 53.9 62 5.1 41.2
22:50 1012 29.88 841 24.83 12.2 54 62 5.2 41.3
22:55 1012 29.88 841 24.83 12.2 53.9 63 5.4 41.7
23:00 1012 29.88 841 24.83 12.1 53.8 63 5.3 41.5
23:05 1012 29.88 841 24.83 12.1 53.8 62 5.2 41.3
23:10 1012 29.88 841 24.83 12.1 53.7 62 5.1 41.2
23:15 1012 29.88 841 24.83 12.2 53.9 62 5.2 41.4
23:20 1012 29.88 842 24.86 12.2 53.9 63 5.5 41.9
23:25 1012 29.88 841 24.83 12.2 53.9 63 5.4 41.8
23:30 1012 29.88 841 24.83 12.3 54.1 62 5.2 41.3
23:35 1012 29.88 841 24.83 12.3 54.2 62 5.4 41.8
23:40 1012 29.88 841 24.83 12.2 54 64 5.6 42.1
23:45 1012 29.88 841 24.83 12 53.6 66 5.8 42.5
23:50 1012 29.88 841 24.83 11.8 53.3 67 5.9 42.5
23:55 1012 29.88 841 24.83 11.7 53.1 67 6 42.7
24:00 1012 29.88 841 24.83 11.6 52.9 68 5.8 42.5